createdAt,value
2018-02-08T00:01:48.940Z,-3.64
2018-02-08T00:04:16.928Z,-3.63
2018-02-08T00:06:44.969Z,-3.64
2018-02-08T00:09:13.383Z,-3.63
2018-02-08T00:11:41.739Z,-3.67
2018-02-08T00:14:09.827Z,-3.63
2018-02-08T00:16:38.055Z,-3.57
2018-02-08T00:19:10.088Z,-3.56
2018-02-08T00:21:38.111Z,-3.54
2018-02-08T00:24:06.126Z,-3.61
2018-02-08T00:26:34.136Z,-3.58
2018-02-08T00:29:02.174Z,-3.58
2018-02-08T00:31:30.240Z,-3.61
2018-02-08T00:33:58.258Z,-3.64
2018-02-08T00:36:26.248Z,-3.60
2018-02-08T00:38:54.252Z,-3.62
2018-02-08T00:41:22.280Z,-3.66
2018-02-08T00:43:50.359Z,-3.64
2018-02-08T00:46:18.543Z,-3.67
2018-02-08T00:48:46.572Z,-3.67
2018-02-08T00:51:14.657Z,-3.69
2018-02-08T00:53:42.776Z,-3.70
2018-02-08T00:56:10.809Z,-3.74
2018-02-08T00:58:38.797Z,-3.70
2018-02-08T01:01:06.835Z,-3.74
2018-02-08T01:03:34.830Z,-3.72
2018-02-08T01:06:02.880Z,-3.70
2018-02-08T01:08:30.884Z,-3.79
2018-02-08T01:10:58.901Z,-3.86
2018-02-08T01:13:27.016Z,-3.83
2018-02-08T01:15:55.052Z,-4.04
2018-02-08T01:18:23.162Z,-4.02
2018-02-08T01:20:51.235Z,-3.95
2018-02-08T01:23:19.267Z,-3.99
2018-02-08T01:25:47.370Z,-3.98
2018-02-08T01:28:15.473Z,-3.95
2018-02-08T01:30:43.447Z,-3.96
2018-02-08T01:33:11.489Z,-3.94
2018-02-08T01:35:39.456Z,-4.01
2018-02-08T01:38:07.414Z,-3.99
2018-02-08T01:40:35.353Z,-4.07
2018-02-08T01:43:03.523Z,-4.10
2018-02-08T01:45:31.532Z,-4.10
2018-02-08T01:48:00.448Z,-4.13
2018-02-08T01:50:28.383Z,-4.12
2018-02-08T01:52:57.226Z,-4.09
2018-02-08T01:55:25.154Z,-4.10
2018-02-08T01:57:53.144Z,-4.20
2018-02-08T02:00:21.114Z,-4.16
2018-02-08T02:02:49.157Z,-4.20
2018-02-08T02:05:17.191Z,-4.24
2018-02-08T02:07:45.495Z,-4.22
2018-02-08T02:10:13.466Z,-4.15
2018-02-08T02:12:41.956Z,-4.24
2018-02-08T02:15:09.954Z,-4.23
2018-02-08T02:17:37.869Z,-4.24
2018-02-08T02:20:05.890Z,-4.28
2018-02-08T02:22:34.419Z,-4.28
2018-02-08T02:25:02.406Z,-4.37
2018-02-08T02:27:30.345Z,-4.38
2018-02-08T02:29:58.319Z,-4.31
2018-02-08T02:32:26.247Z,-4.34
2018-02-08T02:34:54.223Z,-4.34
2018-02-08T02:37:22.190Z,-4.28
2018-02-08T02:39:50.163Z,-4.29
2018-02-08T02:42:18.125Z,-4.24
2018-02-08T02:44:46.093Z,-4.30
2018-02-08T02:47:14.085Z,-4.30
2018-02-08T02:49:42.050Z,-4.29
2018-02-08T02:52:09.998Z,-4.29
2018-02-08T02:54:38.090Z,-4.29
2018-02-08T02:57:06.079Z,-4.28
2018-02-08T02:59:34.134Z,-4.37
2018-02-08T03:02:02.036Z,-4.42
2018-02-08T03:04:30.073Z,-4.36
2018-02-08T03:06:58.059Z,-4.42
2018-02-08T03:09:26.077Z,-4.44
2018-02-08T03:11:54.018Z,-4.45
2018-02-08T03:14:21.950Z,-4.44
2018-02-08T03:16:49.923Z,-4.41
2018-02-08T03:19:17.877Z,-4.36
2018-02-08T03:21:45.913Z,-4.30
2018-02-08T03:24:13.901Z,-4.45
2018-02-08T03:26:41.837Z,-4.45
2018-02-08T03:29:10.250Z,-4.41
2018-02-08T03:31:38.363Z,-4.41
2018-02-08T03:34:06.250Z,-4.44
2018-02-08T03:36:34.229Z,-4.41
2018-02-08T03:39:02.439Z,-4.42
2018-02-08T03:41:30.358Z,-4.57
2018-02-08T03:43:58.798Z,-4.63
2018-02-08T03:46:26.779Z,-4.75
2018-02-08T03:48:54.781Z,-4.82
2018-02-08T03:51:22.751Z,-4.72
2018-02-08T03:53:50.737Z,-4.68
2018-02-08T03:56:18.714Z,-4.65
2018-02-08T03:58:46.760Z,-4.80
2018-02-08T04:01:14.754Z,-4.84
2018-02-08T04:03:42.707Z,-4.83
2018-02-08T04:06:10.681Z,-4.81
2018-02-08T04:08:38.634Z,-4.81
2018-02-08T04:11:06.644Z,-4.76
2018-02-08T04:13:34.602Z,-4.76
2018-02-08T04:16:02.534Z,-4.74
2018-02-08T04:18:30.650Z,-4.76
2018-02-08T04:20:58.618Z,-4.66
2018-02-08T04:23:26.586Z,-4.61
2018-02-08T04:25:55.025Z,-4.58
2018-02-08T04:28:22.994Z,-4.54
2018-02-08T04:30:51.036Z,-4.26
2018-02-08T04:33:18.994Z,-3.54
2018-02-08T04:35:46.984Z,-3.34
2018-02-08T04:38:17.864Z,-3.64
2018-02-08T04:40:57.823Z,-3.86
2018-02-08T04:43:37.704Z,-4.05
2018-02-08T04:46:17.364Z,-4.13
2018-02-08T04:48:45.341Z,-3.13
2018-02-08T04:51:13.310Z,-2.62
2018-02-08T04:53:41.283Z,-3.33
2018-02-08T04:56:09.254Z,-3.66
2018-02-08T04:58:37.196Z,-3.75
2018-02-08T05:01:05.155Z,-3.91
2018-02-08T05:03:33.126Z,-4.12
2018-02-08T05:06:01.105Z,-4.16
2018-02-08T05:08:29.109Z,-4.19
2018-02-08T05:10:57.031Z,-4.24
2018-02-08T05:13:25.079Z,-4.29
2018-02-08T05:15:53.004Z,-4.32
2018-02-08T05:18:20.985Z,-4.52
2018-02-08T05:20:48.953Z,-4.58
2018-02-08T05:23:16.921Z,-4.49
2018-02-08T05:25:44.890Z,-4.69
2018-02-08T05:28:12.865Z,-4.94
2018-02-08T05:30:40.817Z,-4.87
2018-02-08T05:33:08.785Z,-4.88
2018-02-08T05:35:36.754Z,-4.93
2018-02-08T05:38:04.746Z,-4.95
2018-02-08T05:40:32.746Z,-5.05
2018-02-08T05:43:00.813Z,-5.05
2018-02-08T05:45:28.912Z,-5.07
2018-02-08T05:47:56.852Z,-5.03
2018-02-08T05:50:24.853Z,-5.04
2018-02-08T05:52:52.775Z,-4.91
2018-02-08T05:55:20.777Z,-4.86
2018-02-08T05:57:48.745Z,-4.90
2018-02-08T06:00:16.772Z,-4.91
2018-02-08T06:02:44.718Z,-4.87
2018-02-08T06:05:12.767Z,-4.98
2018-02-08T06:07:40.761Z,-5.04
2018-02-08T06:10:08.734Z,-5.03
2018-02-08T06:12:36.753Z,-5.05
2018-02-08T06:15:04.699Z,-4.99
2018-02-08T06:17:32.698Z,-5.13
2018-02-08T06:20:00.663Z,-5.09
2018-02-08T06:22:28.670Z,-5.22
2018-02-08T06:24:56.678Z,-5.32
2018-02-08T06:27:24.721Z,-5.25
2018-02-08T06:29:52.820Z,-5.22
2018-02-08T06:32:21.405Z,-5.20
2018-02-08T06:34:49.407Z,-5.20
2018-02-08T06:37:17.360Z,-5.19
2018-02-08T06:39:45.329Z,-5.20
2018-02-08T06:42:13.300Z,-5.25
2018-02-08T06:44:41.272Z,-5.25
2018-02-08T06:47:09.221Z,-5.15
2018-02-08T06:49:37.429Z,-5.23
2018-02-08T06:52:05.460Z,-5.18
2018-02-08T06:54:33.434Z,-5.16
2018-02-08T06:57:01.431Z,-5.30
2018-02-08T06:59:29.447Z,-5.31
2018-02-08T07:01:57.462Z,-5.44
2018-02-08T07:04:25.611Z,-5.47
2018-02-08T07:06:53.566Z,-5.38
2018-02-08T07:09:21.563Z,-5.39
2018-02-08T07:11:49.601Z,-5.42
2018-02-08T07:14:17.570Z,-5.40
2018-02-08T07:16:45.585Z,-5.42
2018-02-08T07:19:13.563Z,-5.19
2018-02-08T07:21:41.573Z,-5.25
2018-02-08T07:24:09.839Z,-5.18
2018-02-08T07:26:38.796Z,-5.04
2018-02-08T07:29:06.841Z,-4.78
2018-02-08T07:31:34.873Z,-4.20
2018-02-08T07:34:02.996Z,-4.54
2018-02-08T07:36:31.035Z,-4.58
2018-02-08T07:38:59.042Z,-4.54
2018-02-08T07:41:27.133Z,-4.71
2018-02-08T07:43:55.156Z,-4.83
2018-02-08T07:46:23.209Z,-4.65
2018-02-08T07:48:51.165Z,-4.76
2018-02-08T07:51:19.165Z,-4.72
2018-02-08T07:53:47.156Z,-4.65
2018-02-08T07:56:15.153Z,-4.52
2018-02-08T07:58:43.109Z,-4.45
2018-02-08T08:01:11.081Z,-4.48
2018-02-08T08:03:39.167Z,-4.29
2018-02-08T08:06:07.144Z,-4.20
2018-02-08T08:08:35.092Z,-4.22
2018-02-08T08:11:03.313Z,-4.29
2018-02-08T08:13:31.418Z,-4.19
2018-02-08T08:15:59.352Z,-3.93
2018-02-08T08:18:27.321Z,-3.80
2018-02-08T08:20:55.364Z,-3.60
2018-02-08T08:23:23.375Z,-3.63
2018-02-08T08:25:51.400Z,-3.52
2018-02-08T08:28:19.480Z,-3.49
2018-02-08T08:30:47.879Z,-3.47
2018-02-08T08:33:16.243Z,-3.31
2018-02-08T08:35:44.912Z,-3.08
2018-02-08T08:38:13.010Z,-3.02
2018-02-08T08:40:41.505Z,-2.86
2018-02-08T08:43:09.817Z,-2.87
2018-02-08T08:45:37.921Z,-2.77
2018-02-08T08:48:06.157Z,-2.73
2018-02-08T08:50:34.156Z,-2.52
2018-02-08T08:53:02.963Z,-2.64
2018-02-08T08:55:31.182Z,-2.54
2018-02-08T08:58:00.913Z,-2.23
2018-02-08T09:00:29.020Z,-2.30
2018-02-08T09:02:57.007Z,-2.14
2018-02-08T09:05:26.276Z,-2.18
2018-02-08T09:07:55.194Z,-2.00
2018-02-08T09:10:23.820Z,-1.99
2018-02-08T09:12:51.837Z,-1.78
2018-02-08T09:15:19.804Z,-1.71
2018-02-08T09:17:48.190Z,-1.49
2018-02-08T09:20:16.252Z,-1.31
2018-02-08T09:22:44.988Z,-1.32
2018-02-08T09:25:13.172Z,-1.18
2018-02-08T09:27:41.154Z,-0.98
2018-02-08T09:30:09.194Z,-0.88
2018-02-08T09:32:37.393Z,-0.85
2018-02-08T09:35:05.483Z,-0.65
2018-02-08T09:37:33.617Z,-0.75
2018-02-08T09:40:01.799Z,-0.69
2018-02-08T09:42:29.931Z,-0.34
2018-02-08T09:44:57.996Z,-0.22
2018-02-08T09:47:26.051Z,-0.32
2018-02-08T09:49:54.196Z,-0.24
2018-02-08T09:52:22.327Z,-0.16
2018-02-08T09:54:50.479Z,-0.20
2018-02-08T09:57:18.486Z,-0.12
2018-02-08T09:59:46.536Z,0.10
2018-02-08T10:02:14.990Z,0.16
2018-02-08T10:04:43.074Z,0.04
2018-02-08T10:07:11.098Z,0.04
2018-02-08T10:09:39.081Z,-0.00
2018-02-08T10:12:07.491Z,0.34
2018-02-08T10:14:35.815Z,0.18
2018-02-08T10:17:03.877Z,0.09
2018-02-08T10:19:31.921Z,0.14
2018-02-08T10:22:00.922Z,0.22
2018-02-08T10:24:29.383Z,0.03
2018-02-08T10:26:57.671Z,0.15
2018-02-08T10:29:25.784Z,0.21
2018-02-08T10:31:53.929Z,0.55
2018-02-08T10:34:22.171Z,0.84
2018-02-08T10:36:50.287Z,0.99
2018-02-08T10:39:18.404Z,1.09
2018-02-08T10:41:46.516Z,1.53
2018-02-08T10:44:14.556Z,1.92
2018-02-08T10:46:42.731Z,2.24
2018-02-08T10:49:10.803Z,2.46
2018-02-08T10:51:38.861Z,2.54
2018-02-08T10:54:06.889Z,2.81
2018-02-08T10:56:35.114Z,3.13
2018-02-08T10:59:03.097Z,3.23
2018-02-08T11:01:31.108Z,3.21
2018-02-08T11:03:59.073Z,3.40
2018-02-08T11:06:27.033Z,3.26
2018-02-08T11:08:54.979Z,2.97
2018-02-08T11:11:22.979Z,2.75
2018-02-08T11:13:51.004Z,2.89
2018-02-08T11:16:18.965Z,2.78
2018-02-08T11:18:46.903Z,2.15
2018-02-08T11:21:14.872Z,2.36
2018-02-08T11:23:42.844Z,2.64
2018-02-08T11:26:10.780Z,2.61
2018-02-08T11:28:38.914Z,2.49
2018-02-08T11:31:06.920Z,2.65
2018-02-08T11:33:34.925Z,2.75
2018-02-08T11:36:02.941Z,2.56
2018-02-08T11:38:30.905Z,2.62
2018-02-08T11:40:58.842Z,2.65
2018-02-08T11:43:26.945Z,2.50
2018-02-08T11:45:54.915Z,2.29
2018-02-08T11:48:23.811Z,2.70
2018-02-08T11:50:51.758Z,2.36
2018-02-08T11:53:19.861Z,2.50
2018-02-08T11:55:47.846Z,2.75
2018-02-08T11:58:15.856Z,2.47
2018-02-08T12:00:43.905Z,2.68
2018-02-08T12:03:12.006Z,2.44
2018-02-08T12:05:39.945Z,2.35
2018-02-08T12:08:07.950Z,2.37
2018-02-08T12:10:35.978Z,2.30
2018-02-08T12:13:04.097Z,2.20
2018-02-08T12:15:32.502Z,2.22
2018-02-08T12:18:00.741Z,2.41
2018-02-08T12:20:30.185Z,2.54
2018-02-08T12:22:58.250Z,2.39
2018-02-08T12:25:26.536Z,2.39
2018-02-08T12:27:56.176Z,1.99
2018-02-08T12:30:24.213Z,2.02
2018-02-08T12:32:53.362Z,2.19
2018-02-08T12:35:21.456Z,2.13
2018-02-08T12:37:49.608Z,2.06
2018-02-08T12:40:17.656Z,1.84
2018-02-08T12:42:45.655Z,1.78
2018-02-08T12:45:13.818Z,2.13
2018-02-08T12:47:41.952Z,2.22
2018-02-08T12:50:09.889Z,2.23
2018-02-08T12:52:37.940Z,2.44
2018-02-08T12:55:05.931Z,2.10
2018-02-08T12:57:33.930Z,1.98
2018-02-08T13:00:01.915Z,1.98
2018-02-08T13:02:30.015Z,1.92
2018-02-08T13:04:57.999Z,1.92
2018-02-08T13:07:26.262Z,1.93
2018-02-08T13:09:54.452Z,2.10
2018-02-08T13:12:22.496Z,2.02
2018-02-08T13:14:50.535Z,2.06
2018-02-08T13:17:18.656Z,1.75
2018-02-08T13:19:46.895Z,1.63
2018-02-08T13:22:16.399Z,1.66
2018-02-08T13:24:44.334Z,1.73
2018-02-08T13:27:12.354Z,1.72
2018-02-08T13:29:40.297Z,1.63
2018-02-08T13:32:09.195Z,1.76
2018-02-08T13:34:38.419Z,1.78
2018-02-08T13:37:06.512Z,1.62
2018-02-08T13:39:37.241Z,1.61
2018-02-08T13:42:23.106Z,1.64
2018-02-08T13:44:51.259Z,1.47
2018-02-08T13:47:24.938Z,1.48
2018-02-08T13:50:01.408Z,1.61
2018-02-08T13:52:35.095Z,1.79
2018-02-08T13:55:06.808Z,1.75
2018-02-08T13:57:37.338Z,1.64
2018-02-08T14:00:10.959Z,1.57
2018-02-08T14:02:39.010Z,1.51
2018-02-08T14:05:06.965Z,1.45
2018-02-08T14:07:36.635Z,1.54
2018-02-08T14:10:04.967Z,1.68
2018-02-08T14:12:33.102Z,1.61
2018-02-08T14:15:01.070Z,1.47
2018-02-08T14:17:29.078Z,1.38
2018-02-08T14:19:57.178Z,1.24
2018-02-08T14:22:25.152Z,1.23
2018-02-08T14:24:53.239Z,1.31
2018-02-08T14:27:22.239Z,1.49
2018-02-08T14:29:50.251Z,1.61
2018-02-08T14:32:18.335Z,1.46
2018-02-08T14:34:46.302Z,1.46
2018-02-08T14:37:14.448Z,1.36
2018-02-08T14:39:42.489Z,1.29
2018-02-08T14:42:10.503Z,1.19
2018-02-08T14:44:38.455Z,1.17
2018-02-08T14:47:06.728Z,1.32
2018-02-08T14:49:34.808Z,1.39
2018-02-08T14:52:02.742Z,1.41
2018-02-08T14:54:30.754Z,1.36
2018-02-08T14:56:59.232Z,1.43
2018-02-08T14:59:27.222Z,1.52
2018-02-08T15:01:55.192Z,1.27
2018-02-08T15:04:23.213Z,1.22
2018-02-08T15:06:51.296Z,1.22
2018-02-08T15:09:19.487Z,1.20
2018-02-08T15:11:47.596Z,1.25
2018-02-08T15:14:15.692Z,1.35
2018-02-08T15:16:43.663Z,1.38
2018-02-08T15:19:11.738Z,1.43
2018-02-08T15:21:39.927Z,1.28
2018-02-08T15:24:13.828Z,1.29
2018-02-08T15:26:42.231Z,1.33
2018-02-08T15:29:10.332Z,1.13
2018-02-08T15:31:38.471Z,1.17
2018-02-08T15:34:06.512Z,1.10
2018-02-08T15:36:34.556Z,1.06
2018-02-08T15:39:02.676Z,1.08
2018-02-08T15:41:30.699Z,0.92
2018-02-08T15:43:58.781Z,1.01
2018-02-08T15:46:26.733Z,0.84
2018-02-08T15:48:54.791Z,0.92
2018-02-08T15:51:22.818Z,0.82
2018-02-08T15:53:50.797Z,0.94
2018-02-08T15:56:18.858Z,0.82
2018-02-08T15:58:46.897Z,0.76
2018-02-08T16:01:14.983Z,0.75
2018-02-08T16:03:42.979Z,0.74
2018-02-08T16:06:11.857Z,0.63
2018-02-08T16:08:40.827Z,0.72
2018-02-08T16:11:08.873Z,0.57
2018-02-08T16:13:37.000Z,0.59
2018-02-08T16:16:05.143Z,0.53
2018-02-08T16:18:34.058Z,0.53
2018-02-08T16:21:02.032Z,0.51
2018-02-08T16:23:30.075Z,0.54
2018-02-08T16:25:58.467Z,0.44
2018-02-08T16:28:26.425Z,0.42
2018-02-08T16:30:54.394Z,0.43
2018-02-08T16:33:22.430Z,0.37
2018-02-08T16:35:50.462Z,0.36
2018-02-08T16:38:18.544Z,0.35
2018-02-08T16:40:46.517Z,0.37
2018-02-08T16:43:14.553Z,0.30
2018-02-08T16:45:42.600Z,0.27
2018-02-08T16:48:10.596Z,0.25
2018-02-08T16:50:38.566Z,0.27
2018-02-08T16:53:06.561Z,0.23
2018-02-08T16:55:34.562Z,0.21
2018-02-08T16:58:02.578Z,0.20
2018-02-08T17:00:30.602Z,0.16
2018-02-08T17:02:58.586Z,0.13
2018-02-08T17:05:26.589Z,0.13
2018-02-08T17:07:54.625Z,0.16
2018-02-08T17:10:22.691Z,0.09
2018-02-08T17:12:50.642Z,0.03
2018-02-08T17:15:18.654Z,0.03
2018-02-08T17:17:46.600Z,0.06
2018-02-08T17:20:14.636Z,0.01
2018-02-08T17:22:42.579Z,0.01
2018-02-08T17:25:10.547Z,-0.06
2018-02-08T17:27:38.883Z,-0.12
2018-02-08T17:30:06.882Z,-0.15
2018-02-08T17:32:34.855Z,-0.17
2018-02-08T17:35:02.855Z,-0.20
2018-02-08T17:37:30.822Z,-0.21
2018-02-08T17:39:58.858Z,-0.17
2018-02-08T17:42:26.811Z,-0.22
2018-02-08T17:44:55.260Z,-0.20
2018-02-08T17:47:23.268Z,-0.31
2018-02-08T17:49:51.231Z,-0.39
2018-02-08T17:52:19.209Z,-0.38
2018-02-08T17:54:47.865Z,-0.38
2018-02-08T17:57:15.882Z,-0.55
2018-02-08T17:59:43.894Z,-0.60
2018-02-08T18:02:11.927Z,-0.57
2018-02-08T18:04:39.922Z,-0.56
2018-02-08T18:07:08.027Z,-0.64
2018-02-08T18:09:35.996Z,-0.55
2018-02-08T18:12:03.958Z,-0.67
2018-02-08T18:14:32.030Z,-0.59
2018-02-08T18:16:59.985Z,-0.62
2018-02-08T18:19:27.966Z,-0.66
2018-02-08T18:21:55.979Z,-0.66
2018-02-08T18:24:23.944Z,-0.69
2018-02-08T18:26:51.957Z,-0.64
2018-02-08T18:29:20.055Z,-0.73
2018-02-08T18:31:48.028Z,-0.72
2018-02-08T18:34:16.144Z,-0.79
2018-02-08T18:36:44.160Z,-0.77
2018-02-08T18:39:12.229Z,-0.75
2018-02-08T18:41:40.244Z,-0.77
2018-02-08T18:44:08.195Z,-0.75
2018-02-08T18:46:36.153Z,-0.86
2018-02-08T18:49:04.808Z,-0.88
2018-02-08T18:51:33.081Z,-0.86
2018-02-08T18:54:01.161Z,-0.93
2018-02-08T18:56:29.302Z,-0.99
2018-02-08T18:58:57.358Z,-1.04
2018-02-08T19:01:25.398Z,-1.10
2018-02-08T19:03:53.470Z,-1.08
2018-02-08T19:06:21.398Z,-1.15
2018-02-08T19:08:49.431Z,-1.19
2018-02-08T19:11:17.420Z,-1.30
2018-02-08T19:13:45.421Z,-1.33
2018-02-08T19:16:13.564Z,-1.25
2018-02-08T19:18:41.504Z,-1.30
2018-02-08T19:21:09.505Z,-1.32
2018-02-08T19:23:37.708Z,-1.38
2018-02-08T19:26:05.696Z,-1.38
2018-02-08T19:28:33.771Z,-1.52
2018-02-08T19:31:02.109Z,-1.55
2018-02-08T19:33:30.057Z,-1.61
2018-02-08T19:35:58.128Z,-1.50
2018-02-08T19:38:26.362Z,-1.63
2018-02-08T19:40:54.402Z,-1.61
2018-02-08T19:43:22.402Z,-1.64
2018-02-08T19:45:50.536Z,-1.64
2018-02-08T19:48:18.672Z,-1.67
2018-02-08T19:50:46.869Z,-1.68
2018-02-08T19:53:14.903Z,-1.74
2018-02-08T19:55:42.905Z,-1.72
2018-02-08T19:58:10.831Z,-1.77
2018-02-08T20:00:38.807Z,-1.71
2018-02-08T20:03:06.739Z,-1.63
2018-02-08T20:05:34.707Z,-1.61
2018-02-08T20:08:02.688Z,-1.79
2018-02-08T20:10:30.685Z,-1.85
2018-02-08T20:12:58.642Z,-1.87
2018-02-08T20:15:30.206Z,-1.93
2018-02-08T20:17:58.175Z,-1.90
2018-02-08T20:20:26.142Z,-1.99
2018-02-08T20:22:54.129Z,-2.00
2018-02-08T20:25:36.957Z,-2.05
2018-02-08T20:28:05.099Z,-2.02
2018-02-08T20:30:33.072Z,-2.03
2018-02-08T20:33:01.013Z,-2.17
2018-02-08T20:35:28.979Z,-2.12
2018-02-08T20:37:56.993Z,-2.13
2018-02-08T20:40:25.554Z,-2.12
2018-02-08T20:42:59.113Z,-2.14
2018-02-08T20:45:27.060Z,-2.18
2018-02-08T20:47:55.194Z,-2.14
2018-02-08T20:50:23.330Z,-2.27
2018-02-08T20:52:51.414Z,-2.21
2018-02-08T20:55:19.534Z,-2.24
2018-02-08T20:57:47.550Z,-2.24
2018-02-08T21:00:15.530Z,-2.23
2018-02-08T21:02:43.538Z,-2.20
2018-02-08T21:05:11.617Z,-2.18
2018-02-08T21:07:39.778Z,-2.21
2018-02-08T21:10:07.774Z,-2.21
2018-02-08T21:12:35.735Z,-2.15
2018-02-08T21:15:03.711Z,-2.28
2018-02-08T21:17:31.848Z,-2.24
2018-02-08T21:19:59.879Z,-2.27
2018-02-08T21:22:27.818Z,-2.28
2018-02-08T21:24:55.884Z,-2.33
2018-02-08T21:27:23.875Z,-2.39
2018-02-08T21:29:51.858Z,-2.39
2018-02-08T21:32:19.901Z,-2.38
2018-02-08T21:34:47.869Z,-2.46
2018-02-08T21:37:15.938Z,-2.38
2018-02-08T21:39:43.913Z,-2.42
2018-02-08T21:42:12.307Z,-2.45
2018-02-08T21:44:40.306Z,-2.46
2018-02-08T21:47:08.233Z,-2.56
2018-02-08T21:49:36.309Z,-2.58
2018-02-08T21:52:04.384Z,-2.54
2018-02-08T21:54:33.271Z,-2.45
2018-02-08T21:57:01.248Z,-2.53
2018-02-08T21:59:29.556Z,-2.58
2018-02-08T22:01:57.533Z,-2.61
2018-02-08T22:04:25.771Z,-2.53
2018-02-08T22:06:53.737Z,-2.54
2018-02-08T22:09:22.350Z,-2.64
2018-02-08T22:11:50.537Z,-2.73
2018-02-08T22:14:18.462Z,-2.68
2018-02-08T22:16:46.436Z,-2.63
2018-02-08T22:19:14.477Z,-2.74
2018-02-08T22:21:42.423Z,-2.78
2018-02-08T22:24:11.196Z,-2.80
2018-02-08T22:26:39.147Z,-2.86
2018-02-08T22:29:07.230Z,-2.90
2018-02-08T22:31:35.277Z,-2.83
2018-02-08T22:34:03.619Z,-2.91
2018-02-08T22:36:31.658Z,-2.81
2018-02-08T22:38:59.896Z,-2.81
2018-02-08T22:41:27.932Z,-2.96
2018-02-08T22:43:55.888Z,-3.04
2018-02-08T22:46:24.843Z,-3.02
2018-02-08T22:48:52.836Z,-3.03
2018-02-08T22:51:21.605Z,-3.01
2018-02-08T22:53:50.264Z,-3.06
2018-02-08T22:56:18.313Z,-2.97
2018-02-08T22:58:46.557Z,-3.01
2018-02-08T23:01:14.889Z,-2.98
2018-02-08T23:03:42.973Z,-3.07
2018-02-08T23:06:11.910Z,-3.06
2018-02-08T23:08:40.016Z,-3.09
2018-02-08T23:11:08.167Z,-3.16
2018-02-08T23:13:36.123Z,-3.13
2018-02-08T23:16:05.625Z,-3.18
2018-02-08T23:18:33.649Z,-3.02
2018-02-08T23:21:01.754Z,-3.16
2018-02-08T23:23:30.456Z,-3.07
2018-02-08T23:25:58.540Z,-3.09
2018-02-08T23:28:26.647Z,-3.17
2018-02-08T23:30:54.597Z,-3.24
2018-02-08T23:33:22.565Z,-3.28
2018-02-08T23:35:50.577Z,-3.22
2018-02-08T23:38:19.393Z,-3.32
2018-02-08T23:40:47.374Z,-3.31
2018-02-08T23:43:15.330Z,-3.32
2018-02-08T23:45:43.273Z,-3.41
2018-02-08T23:48:11.967Z,-3.40
2018-02-08T23:50:40.186Z,-3.47
2018-02-08T23:53:08.129Z,-3.54
2018-02-08T23:55:36.053Z,-3.52
2018-02-08T23:58:04.110Z,-3.42
